sensor_id;sensor_type;location;lat;lon;timestamp;pressure;altitude;pressure_sealevel;temperature;humidity
65685;BME280;52405;50.844;-1.062;2023-02-21T00:01:48;102359.69;;;11.24;71.12
65685;BME280;52405;50.844;-1.062;2023-02-21T00:04:32;102399.25;;;11.48;71.01
65685;BME280;52405;50.844;-1.062;2023-02-21T00:07:17;102413.22;;;11.50;71.69
65685;BME280;52405;50.844;-1.062;2023-02-21T00:10:01;102406.31;;;11.50;71.18
65685;BME280;52405;50.844;-1.062;2023-02-21T00:12:46;102402.03;;;11.51;71.63
65685;BME280;52405;50.844;-1.062;2023-02-21T00:15:30;102401.94;;;11.49;71.58
65685;BME280;52405;50.844;-1.062;2023-02-21T00:18:14;102393.06;;;11.46;71.31
65685;BME280;52405;50.844;-1.062;2023-02-21T00:20:58;102391.63;;;11.51;71.20
65685;BME280;52405;50.844;-1.062;2023-02-21T00:23:42;102395.03;;;11.50;71.83
65685;BME280;52405;50.844;-1.062;2023-02-21T00:26:26;102382.75;;;11.47;71.32
65685;BME280;52405;50.844;-1.062;2023-02-21T00:29:12;102390.91;;;11.53;71.49
65685;BME280;52405;50.844;-1.062;2023-02-21T00:31:56;102394.38;;;11.54;71.09
65685;BME280;52405;50.844;-1.062;2023-02-21T00:34:42;102385.59;;;11.52;71.40
65685;BME280;52405;50.844;-1.062;2023-02-21T00:37:27;102376.91;;;11.51;71.07
65685;BME280;52405;50.844;-1.062;2023-02-21T00:40:13;102370.81;;;11.51;71.46
65685;BME280;52405;50.844;-1.062;2023-02-21T00:42:57;102376.63;;;11.47;70.92
65685;BME280;52405;50.844;-1.062;2023-02-21T00:45:44;102304.78;;;11.04;71.48
65685;BME280;52405;50.844;-1.062;2023-02-21T00:48:28;102331.84;;;11.23;71.11
65685;BME280;52405;50.844;-1.062;2023-02-21T00:51:16;102360.56;;;11.39;71.72
65685;BME280;52405;50.844;-1.062;2023-02-21T00:54:03;102345.41;;;11.32;71.79
65685;BME280;52405;50.844;-1.062;2023-02-21T00:56:50;102353.75;;;11.41;71.46
65685;BME280;52405;50.844;-1.062;2023-02-21T00:59:35;102352.94;;;11.42;71.84
65685;BME280;52405;50.844;-1.062;2023-02-21T01:02:18;102353.59;;;11.38;71.58
65685;BME280;52405;50.844;-1.062;2023-02-21T01:05:03;102347.56;;;11.39;71.90
65685;BME280;52405;50.844;-1.062;2023-02-21T01:07:47;102343.72;;;11.32;71.58
65685;BME280;52405;50.844;-1.062;2023-02-21T01:10:31;102343.09;;;11.36;71.65
65685;BME280;52405;50.844;-1.062;2023-02-21T01:13:15;102341.19;;;11.34;71.59
65685;BME280;52405;50.844;-1.062;2023-02-21T01:15:59;102333.31;;;11.32;71.89
65685;BME280;52405;50.844;-1.062;2023-02-21T01:18:43;102335.97;;;11.34;71.18
65685;BME280;52405;50.844;-1.062;2023-02-21T01:21:27;102333.38;;;11.34;71.78
65685;BME280;52405;50.844;-1.062;2023-02-21T01:24:14;102333.47;;;11.35;71.75
65685;BME280;52405;50.844;-1.062;2023-02-21T01:26:59;102309.44;;;11.25;71.57
65685;BME280;52405;50.844;-1.062;2023-02-21T01:29:44;102322.81;;;11.31;71.37
65685;BME280;52405;50.844;-1.062;2023-02-21T01:32:30;102320.38;;;11.34;71.89
65685;BME280;52405;50.844;-1.062;2023-02-21T01:35:14;102325.53;;;11.32;71.49
65685;BME280;52405;50.844;-1.062;2023-02-21T01:37:58;102318.25;;;11.27;71.27
65685;BME280;52405;50.844;-1.062;2023-02-21T01:40:42;102313.06;;;11.27;71.66
65685;BME280;52405;50.844;-1.062;2023-02-21T01:43:27;102297.97;;;11.21;71.77
65685;BME280;52405;50.844;-1.062;2023-02-21T01:46:17;102308.94;;;11.30;71.60
65685;BME280;52405;50.844;-1.062;2023-02-21T01:49:07;102294.66;;;11.24;71.67
65685;BME280;52405;50.844;-1.062;2023-02-21T01:51:53;102296.44;;;11.25;71.78
65685;BME280;52405;50.844;-1.062;2023-02-21T01:54:41;102298.25;;;11.26;71.81
65685;BME280;52405;50.844;-1.062;2023-02-21T01:57:26;102294.13;;;11.29;71.92
65685;BME280;52405;50.844;-1.062;2023-02-21T02:00:12;102299.41;;;11.31;71.70
65685;BME280;52405;50.844;-1.062;2023-02-21T02:03:03;102286.41;;;11.31;71.66
65685;BME280;52405;50.844;-1.062;2023-02-21T02:05:51;102290.63;;;11.29;72.14
65685;BME280;52405;50.844;-1.062;2023-02-21T02:08:37;102277.44;;;11.26;71.77
65685;BME280;52405;50.844;-1.062;2023-02-21T02:17:11;102265.06;;;11.22;71.60
65685;BME280;52405;50.844;-1.062;2023-02-21T02:31:20;102262.09;;;11.30;72.12
65685;BME280;52405;50.844;-1.062;2023-02-21T02:39:23;102261.19;;;11.30;71.41
65685;BME280;52405;50.844;-1.062;2023-02-21T02:42:02;102254.22;;;11.29;71.82
65685;BME280;52405;50.844;-1.062;2023-02-21T02:44:42;102237.34;;;11.22;71.37
65685;BME280;52405;50.844;-1.062;2023-02-21T02:47:18;102253.38;;;11.30;71.97
65685;BME280;52405;50.844;-1.062;2023-02-21T02:49:47;102204.44;;;11.08;71.96
65685;BME280;52405;50.844;-1.062;2023-02-21T02:52:14;102234.84;;;11.24;71.46
65685;BME280;52405;50.844;-1.062;2023-02-21T02:54:40;102219.06;;;11.21;71.38
65685;BME280;52405;50.844;-1.062;2023-02-21T02:57:09;102197.38;;;11.05;71.44
65685;BME280;52405;50.844;-1.062;2023-02-21T02:59:40;102230.63;;;11.26;71.55
65685;BME280;52405;50.844;-1.062;2023-02-21T03:02:23;102237.78;;;11.30;72.13
65685;BME280;52405;50.844;-1.062;2023-02-21T03:07:57;102234.28;;;11.29;71.85
65685;BME280;52405;50.844;-1.062;2023-02-21T03:10:40;102231.69;;;11.29;71.43
65685;BME280;52405;50.844;-1.062;2023-02-21T03:15:55;102222.81;;;11.26;71.29
65685;BME280;52405;50.844;-1.062;2023-02-21T03:18:32;102218.41;;;11.25;71.82
65685;BME280;52405;50.844;-1.062;2023-02-21T03:21:05;102219.41;;;11.27;71.69
65685;BME280;52405;50.844;-1.062;2023-02-21T03:23:33;102222.06;;;11.28;71.54
65685;BME280;52405;50.844;-1.062;2023-02-21T03:26:02;102221.09;;;11.26;71.51
65685;BME280;52405;50.844;-1.062;2023-02-21T03:28:30;102215.00;;;11.26;71.48
65685;BME280;52405;50.844;-1.062;2023-02-21T03:30:58;102206.31;;;11.25;72.38
65685;BME280;52405;50.844;-1.062;2023-02-21T03:33:24;102198.25;;;11.21;71.66
65685;BME280;52405;50.844;-1.062;2023-02-21T03:35:51;102197.59;;;11.25;71.98
65685;BME280;52405;50.844;-1.062;2023-02-21T03:38:17;102148.44;;;10.98;71.85
65685;BME280;52405;50.844;-1.062;2023-02-21T03:40:43;102184.34;;;11.20;71.66
65685;BME280;52405;50.844;-1.062;2023-02-21T03:43:08;102199.31;;;11.24;71.87
65685;BME280;52405;50.844;-1.062;2023-02-21T03:45:34;102200.16;;;11.23;72.30
65685;BME280;52405;50.844;-1.062;2023-02-21T03:48:01;102202.75;;;11.23;72.08
65685;BME280;52405;50.844;-1.062;2023-02-21T03:50:27;102173.69;;;11.15;71.98
65685;BME280;52405;50.844;-1.062;2023-02-21T03:52:52;102179.06;;;11.18;71.74
65685;BME280;52405;50.844;-1.062;2023-02-21T03:55:18;102188.03;;;11.24;71.97
65685;BME280;52405;50.844;-1.062;2023-02-21T03:57:44;102181.03;;;11.23;72.21
65685;BME280;52405;50.844;-1.062;2023-02-21T04:00:15;102135.34;;;10.96;71.89
65685;BME280;52405;50.844;-1.062;2023-02-21T04:02:41;102179.25;;;11.22;71.74
65685;BME280;52405;50.844;-1.062;2023-02-21T04:05:07;102130.97;;;10.95;72.08
65685;BME280;52405;50.844;-1.062;2023-02-21T04:07:32;102159.69;;;11.13;72.00
65685;BME280;52405;50.844;-1.062;2023-02-21T04:09:58;102169.50;;;11.17;72.11
65685;BME280;52405;50.844;-1.062;2023-02-21T04:12:26;102177.19;;;11.16;71.75
65685;BME280;52405;50.844;-1.062;2023-02-21T04:14:53;102163.91;;;11.11;72.04
65685;BME280;52405;50.844;-1.062;2023-02-21T04:17:21;102114.84;;;10.86;71.77
65685;BME280;52405;50.844;-1.062;2023-02-21T04:19:47;102131.03;;;10.97;72.04
65685;BME280;52405;50.844;-1.062;2023-02-21T04:22:14;102146.38;;;11.07;71.57
65685;BME280;52405;50.844;-1.062;2023-02-21T04:24:40;102139.34;;;11.06;71.85
65685;BME280;52405;50.844;-1.062;2023-02-21T04:27:07;102107.88;;;10.85;71.81
65685;BME280;52405;50.844;-1.062;2023-02-21T04:29:33;102120.66;;;10.97;72.39
65685;BME280;52405;50.844;-1.062;2023-02-21T04:32:01;102152.16;;;11.18;71.89
65685;BME280;52405;50.844;-1.062;2023-02-21T04:34:27;102148.69;;;11.17;72.04
65685;BME280;52405;50.844;-1.062;2023-02-21T04:36:55;102120.09;;;11.03;72.05
65685;BME280;52405;50.844;-1.062;2023-02-21T04:39:23;102144.28;;;11.16;71.79
65685;BME280;52405;50.844;-1.062;2023-02-21T04:41:48;102137.22;;;11.14;71.66
65685;BME280;52405;50.844;-1.062;2023-02-21T04:44:16;102088.94;;;10.88;72.02
65685;BME280;52405;50.844;-1.062;2023-02-21T04:46:42;102133.38;;;11.07;71.82
65685;BME280;52405;50.844;-1.062;2023-02-21T04:49:09;102056.38;;;10.63;71.01
65685;BME280;52405;50.844;-1.062;2023-02-21T04:51:34;102134.81;;;11.02;71.54
65685;BME280;52405;50.844;-1.062;2023-02-21T04:54:00;102142.06;;;11.08;71.94
65685;BME280;52405;50.844;-1.062;2023-02-21T04:56:25;102129.34;;;10.97;71.88
65685;BME280;52405;50.844;-1.062;2023-02-21T04:58:52;102141.63;;;11.00;71.74
65685;BME280;52405;50.844;-1.062;2023-02-21T05:01:18;102141.44;;;10.97;71.73
65685;BME280;52405;50.844;-1.062;2023-02-21T05:03:48;102144.22;;;11.00;71.74
65685;BME280;52405;50.844;-1.062;2023-02-21T05:06:22;102148.44;;;10.98;71.92
65685;BME280;52405;50.844;-1.062;2023-02-21T05:08:48;102125.50;;;10.91;72.17
65685;BME280;52405;50.844;-1.062;2023-02-21T05:11:14;102145.75;;;10.96;72.20
65685;BME280;52405;50.844;-1.062;2023-02-21T05:13:41;102131.59;;;10.91;72.35
65685;BME280;52405;50.844;-1.062;2023-02-21T05:16:06;102149.25;;;10.97;72.16
65685;BME280;52405;50.844;-1.062;2023-02-21T05:18:32;102144.88;;;10.96;72.39
65685;BME280;52405;50.844;-1.062;2023-02-21T05:20:59;102151.13;;;10.99;72.36
65685;BME280;52405;50.844;-1.062;2023-02-21T05:23:24;102143.06;;;10.95;72.11
65685;BME280;52405;50.844;-1.062;2023-02-21T05:26:12;102132.50;;;10.92;71.74
65685;BME280;52405;50.844;-1.062;2023-02-21T05:28:39;102141.53;;;10.98;71.67
65685;BME280;52405;50.844;-1.062;2023-02-21T05:31:07;102137.16;;;10.97;71.83
65685;BME280;52405;50.844;-1.062;2023-02-21T05:33:33;102139.81;;;10.99;72.02
65685;BME280;52405;50.844;-1.062;2023-02-21T05:35:58;102135.34;;;10.96;71.74
65685;BME280;52405;50.844;-1.062;2023-02-21T05:38:25;102126.31;;;10.90;71.38
65685;BME280;52405;50.844;-1.062;2023-02-21T05:40:51;102133.59;;;10.95;71.69
65685;BME280;52405;50.844;-1.062;2023-02-21T05:43:17;102140.56;;;10.96;71.36
65685;BME280;52405;50.844;-1.062;2023-02-21T05:45:43;102105.53;;;10.75;71.46
65685;BME280;52405;50.844;-1.062;2023-02-21T05:48:09;102120.84;;;10.85;71.75
65685;BME280;52405;50.844;-1.062;2023-02-21T05:50:34;102141.19;;;10.92;71.90
65685;BME280;52405;50.844;-1.062;2023-02-21T05:53:00;102139.38;;;10.91;71.79
65685;BME280;52405;50.844;-1.062;2023-02-21T05:55:26;102127.03;;;10.87;72.07
65685;BME280;52405;50.844;-1.062;2023-02-21T05:57:55;102141.09;;;10.91;71.82
65685;BME280;52405;50.844;-1.062;2023-02-21T06:00:26;102126.25;;;10.88;72.21
65685;BME280;52405;50.844;-1.062;2023-02-21T06:02:52;102121.75;;;10.86;72.05
65685;BME280;52405;50.844;-1.062;2023-02-21T06:05:19;102133.22;;;10.89;72.11
65685;BME280;52405;50.844;-1.062;2023-02-21T06:07:46;102128.75;;;10.87;72.12
65685;BME280;52405;50.844;-1.062;2023-02-21T06:10:11;102109.38;;;10.82;71.91
65685;BME280;52405;50.844;-1.062;2023-02-21T06:12:37;102117.63;;;10.89;72.02
65685;BME280;52405;50.844;-1.062;2023-02-21T06:15:02;102097.56;;;10.87;72.68
65685;BME280;52405;50.844;-1.062;2023-02-21T06:17:40;102102.75;;;10.87;72.73
65685;BME280;52405;50.844;-1.062;2023-02-21T06:20:07;102093.69;;;10.80;72.01
65685;BME280;52405;50.844;-1.062;2023-02-21T06:22:32;102100.44;;;10.76;72.07
65685;BME280;52405;50.844;-1.062;2023-02-21T06:24:58;102111.91;;;10.80;72.16
65685;BME280;52405;50.844;-1.062;2023-02-21T06:27:26;102090.25;;;10.65;72.16
65685;BME280;52405;50.844;-1.062;2023-02-21T06:29:51;102087.88;;;10.69;72.48
65685;BME280;52405;50.844;-1.062;2023-02-21T06:32:19;102123.56;;;10.87;72.90
65685;BME280;52405;50.844;-1.062;2023-02-21T06:34:45;102097.69;;;10.73;72.12
65685;BME280;52405;50.844;-1.062;2023-02-21T06:37:12;102097.59;;;10.72;72.12
65685;BME280;52405;50.844;-1.062;2023-02-21T06:39:38;102100.97;;;10.71;72.70
65685;BME280;52405;50.844;-1.062;2023-02-21T06:42:09;102024.16;;;10.30;72.27
65685;BME280;52405;50.844;-1.062;2023-02-21T06:44:36;102111.09;;;10.81;72.41
65685;BME280;52405;50.844;-1.062;2023-02-21T06:47:04;102101.06;;;10.72;72.27
65685;BME280;52405;50.844;-1.062;2023-02-21T06:49:31;102109.84;;;10.74;72.68
65685;BME280;52405;50.844;-1.062;2023-02-21T06:52:01;102070.72;;;10.56;72.76
65685;BME280;52405;50.844;-1.062;2023-02-21T06:54:27;102120.75;;;10.84;72.34
65685;BME280;52405;50.844;-1.062;2023-02-21T06:56:54;102112.78;;;10.80;72.65
65685;BME280;52405;50.844;-1.062;2023-02-21T06:59:20;102110.81;;;10.76;72.62
65685;BME280;52405;50.844;-1.062;2023-02-21T07:01:47;102115.38;;;10.80;72.49
65685;BME280;52405;50.844;-1.062;2023-02-21T07:04:15;102117.19;;;10.82;72.77
65685;BME280;52405;50.844;-1.062;2023-02-21T07:06:43;102123.28;;;10.82;72.79
65685;BME280;52405;50.844;-1.062;2023-02-21T07:09:09;102117.09;;;10.80;72.23
65685;BME280;52405;50.844;-1.062;2023-02-21T07:11:34;102113.78;;;10.83;72.60
65685;BME280;52405;50.844;-1.062;2023-02-21T07:14:00;102102.88;;;10.73;72.45
65685;BME280;52405;50.844;-1.062;2023-02-21T07:16:26;102087.38;;;10.60;72.23
65685;BME280;52405;50.844;-1.062;2023-02-21T07:18:52;102107.16;;;10.73;72.33
65685;BME280;52405;50.844;-1.062;2023-02-21T07:21:20;102117.75;;;10.76;72.73
65685;BME280;52405;50.844;-1.062;2023-02-21T07:23:48;102102.41;;;10.66;72.86
65685;BME280;52405;50.844;-1.062;2023-02-21T07:26:14;102111.38;;;10.71;72.57
65685;BME280;52405;50.844;-1.062;2023-02-21T07:28:40;102098.94;;;10.65;72.63
65685;BME280;52405;50.844;-1.062;2023-02-21T07:31:05;102092.94;;;10.66;72.79
65685;BME280;52405;50.844;-1.062;2023-02-21T07:33:31;102106.44;;;10.75;72.69
65685;BME280;52405;50.844;-1.062;2023-02-21T07:35:59;102101.31;;;10.77;72.40
65685;BME280;52405;50.844;-1.062;2023-02-21T07:38:29;102114.41;;;10.78;72.03
65685;BME280;52405;50.844;-1.062;2023-02-21T07:41:00;102108.06;;;10.73;72.30
65685;BME280;52405;50.844;-1.062;2023-02-21T07:43:27;102118.91;;;10.66;72.34
65685;BME280;52405;50.844;-1.062;2023-02-21T07:45:53;102092.88;;;10.50;72.40
65685;BME280;52405;50.844;-1.062;2023-02-21T07:48:18;102096.34;;;10.50;72.55
65685;BME280;52405;50.844;-1.062;2023-02-21T07:50:44;102099.03;;;10.52;72.81
65685;BME280;52405;50.844;-1.062;2023-02-21T07:53:11;102091.25;;;10.52;72.48
65685;BME280;52405;50.844;-1.062;2023-02-21T07:55:37;102108.16;;;10.60;72.87
65685;BME280;52405;50.844;-1.062;2023-02-21T07:58:03;102127.78;;;10.70;72.64
65685;BME280;52405;50.844;-1.062;2023-02-21T08:00:31;102132.06;;;10.69;72.88
65685;BME280;52405;50.844;-1.062;2023-02-21T08:02:57;102128.41;;;10.66;72.32
65685;BME280;52405;50.844;-1.062;2023-02-21T08:05:23;102133.50;;;10.64;72.72
65685;BME280;52405;50.844;-1.062;2023-02-21T08:07:51;102120.81;;;10.54;72.80
65685;BME280;52405;50.844;-1.062;2023-02-21T08:10:26;102098.13;;;10.36;73.21
65685;BME280;52405;50.844;-1.062;2023-02-21T08:12:51;102123.41;;;10.54;73.31
65685;BME280;52405;50.844;-1.062;2023-02-21T08:15:17;102137.56;;;10.59;73.31
65685;BME280;52405;50.844;-1.062;2023-02-21T08:17:43;102110.94;;;10.48;73.01
65685;BME280;52405;50.844;-1.062;2023-02-21T08:20:09;102124.47;;;10.57;72.96
65685;BME280;52405;50.844;-1.062;2023-02-21T08:22:36;102124.13;;;10.66;73.16
65685;BME280;52405;50.844;-1.062;2023-02-21T08:25:02;102122.41;;;10.67;73.25
65685;BME280;52405;50.844;-1.062;2023-02-21T08:27:28;102113.72;;;10.66;72.84
65685;BME280;52405;50.844;-1.062;2023-02-21T08:29:53;102119.34;;;10.74;73.08
65685;BME280;52405;50.844;-1.062;2023-02-21T08:32:19;102112.34;;;10.73;72.79
65685;BME280;52405;50.844;-1.062;2023-02-21T08:34:48;102113.19;;;10.72;72.93
65685;BME280;52405;50.844;-1.062;2023-02-21T08:37:14;102124.66;;;10.75;73.26
65685;BME280;52405;50.844;-1.062;2023-02-21T08:39:49;102116.84;;;10.75;72.78
65685;BME280;52405;50.844;-1.062;2023-02-21T08:42:17;102123.13;;;10.79;72.87
65685;BME280;52405;50.844;-1.062;2023-02-21T08:44:44;102117.81;;;10.77;73.30
65685;BME280;52405;50.844;-1.062;2023-02-21T08:47:10;102108.22;;;10.76;72.91
65685;BME280;52405;50.844;-1.062;2023-02-21T08:49:38;102108.31;;;10.78;72.32
65685;BME280;52405;50.844;-1.062;2023-02-21T08:52:06;102117.19;;;10.82;72.48
65685;BME280;52405;50.844;-1.062;2023-02-21T08:54:31;102112.53;;;10.76;72.49
65685;BME280;52405;50.844;-1.062;2023-02-21T08:56:59;102109.38;;;10.82;72.95
65685;BME280;52405;50.844;-1.062;2023-02-21T08:59:27;102114.84;;;10.86;72.52
65685;BME280;52405;50.844;-1.062;2023-02-21T09:01:57;102114.91;;;10.88;71.67
65685;BME280;52405;50.844;-1.062;2023-02-21T09:04:25;102110.47;;;10.85;71.99
65685;BME280;52405;50.844;-1.062;2023-02-21T09:06:54;102120.22;;;10.89;71.68
65685;BME280;52405;50.844;-1.062;2023-02-21T09:09:19;102129.41;;;10.99;71.50
65685;BME280;52405;50.844;-1.062;2023-02-21T09:11:45;102125.22;;;11.01;70.75
65685;BME280;52405;50.844;-1.062;2023-02-21T09:14:13;102122.78;;;11.04;71.03
65685;BME280;52405;50.844;-1.062;2023-02-21T09:16:39;102105.50;;;10.90;70.55
65685;BME280;52405;50.844;-1.062;2023-02-21T09:19:04;102093.53;;;10.77;70.84
65685;BME280;52405;50.844;-1.062;2023-02-21T09:21:32;102127.13;;;10.89;71.05
65685;BME280;52405;50.844;-1.062;2023-02-21T09:23:58;102118.72;;;10.78;71.27
65685;BME280;52405;50.844;-1.062;2023-02-21T09:26:24;102125.06;;;10.83;70.95
65685;BME280;52405;50.844;-1.062;2023-02-21T09:28:50;102126.78;;;10.83;71.36
65685;BME280;52405;50.844;-1.062;2023-02-21T09:31:16;102114.25;;;10.75;71.43
65685;BME280;52405;50.844;-1.062;2023-02-21T09:33:43;102115.31;;;10.79;71.62
65685;BME280;52405;50.844;-1.062;2023-02-21T09:36:11;102119.66;;;10.95;71.47
65685;BME280;52405;50.844;-1.062;2023-02-21T09:38:39;102103.19;;;10.94;71.08
65685;BME280;52405;50.844;-1.062;2023-02-21T09:41:11;102109.34;;;10.96;71.01
65685;BME280;52405;50.844;-1.062;2023-02-21T09:43:47;102120.38;;;11.07;70.59
65685;BME280;52405;50.844;-1.062;2023-02-21T09:46:47;102112.66;;;11.09;70.66
65685;BME280;52405;50.844;-1.062;2023-02-21T09:49:23;102090.38;;;10.97;70.73
65685;BME280;52405;50.844;-1.062;2023-02-21T09:51:49;102120.38;;;11.07;70.52
65685;BME280;52405;50.844;-1.062;2023-02-21T09:54:24;102115.97;;;11.06;70.52
65685;BME280;52405;50.844;-1.062;2023-02-21T09:56:53;102113.34;;;11.06;69.98
65685;BME280;52405;50.844;-1.062;2023-02-21T09:59:18;102105.84;;;11.11;69.98
65685;BME280;52405;50.844;-1.062;2023-02-21T10:13:06;102109.03;;;11.22;69.18
65685;BME280;52405;50.844;-1.062;2023-02-21T10:15:48;102097.22;;;11.28;68.77
65685;BME280;52405;50.844;-1.062;2023-02-21T10:20:58;102098.63;;;11.22;68.30
65685;BME280;52405;50.844;-1.062;2023-02-21T10:23:30;102093.00;;;11.14;68.36
65685;BME280;52405;50.844;-1.062;2023-02-21T10:26:02;102105.19;;;11.15;68.37
65685;BME280;52405;50.844;-1.062;2023-02-21T10:28:31;102060.09;;;10.83;68.31
65685;BME280;52405;50.844;-1.062;2023-02-21T10:31:03;102053.56;;;10.75;68.18
65685;BME280;52405;50.844;-1.062;2023-02-21T10:33:32;102105.03;;;10.97;68.71
65685;BME280;52405;50.844;-1.062;2023-02-21T10:36:10;102078.19;;;10.82;68.63
65685;BME280;52405;50.844;-1.062;2023-02-21T10:38:38;102090.56;;;10.86;68.05
65685;BME280;52405;50.844;-1.062;2023-02-21T10:41:06;102095.94;;;10.89;68.92
65685;BME280;52405;50.844;-1.062;2023-02-21T10:43:44;102091.63;;;10.89;68.81
65685;BME280;52405;50.844;-1.062;2023-02-21T10:46:19;102090.75;;;10.89;68.42
65685;BME280;52405;50.844;-1.062;2023-02-21T10:48:47;102078.19;;;10.82;68.23
65685;BME280;52405;50.844;-1.062;2023-02-21T10:51:28;102070.22;;;10.78;68.49
65685;BME280;52405;50.844;-1.062;2023-02-21T10:54:18;102078.72;;;10.91;68.54
65685;BME280;52405;50.844;-1.062;2023-02-21T10:56:47;102078.25;;;10.98;68.17
65685;BME280;52405;50.844;-1.062;2023-02-21T10:59:23;102064.50;;;11.00;67.48
65685;BME280;52405;50.844;-1.062;2023-02-21T11:01:53;102057.63;;;11.01;67.31
65685;BME280;52405;50.844;-1.062;2023-02-21T11:07:07;102068.19;;;11.04;67.13
65685;BME280;52405;50.844;-1.062;2023-02-21T11:15:05;102068.06;;;11.17;66.94
65685;BME280;52405;50.844;-1.062;2023-02-21T11:17:30;102063.59;;;11.31;66.90
65685;BME280;52405;50.844;-1.062;2023-02-21T11:22:40;102070.38;;;11.61;65.47
65685;BME280;52405;50.844;-1.062;2023-02-21T11:27:40;102058.09;;;11.58;65.25
65685;BME280;52405;50.844;-1.062;2023-02-21T11:30:20;102017.34;;;11.26;65.60
65685;BME280;52405;50.844;-1.062;2023-02-21T11:32:54;102068.91;;;11.49;65.72
65685;BME280;52405;50.844;-1.062;2023-02-21T11:35:31;102066.63;;;11.55;65.47
65685;BME280;52405;50.844;-1.062;2023-02-21T11:38:03;102061.59;;;11.58;64.93
65685;BME280;52405;50.844;-1.062;2023-02-21T11:40:41;102058.16;;;11.60;64.79
65685;BME280;52405;50.844;-1.062;2023-02-21T11:43:12;102059.47;;;11.51;64.24
65685;BME280;52405;50.844;-1.062;2023-02-21T11:48:24;102049.72;;;11.47;65.25
65685;BME280;52405;50.844;-1.062;2023-02-21T11:51:00;102046.94;;;11.44;65.30
65685;BME280;52405;50.844;-1.062;2023-02-21T11:53:36;102050.28;;;11.42;64.67
65685;BME280;52405;50.844;-1.062;2023-02-21T11:56:33;102043.63;;;11.30;65.18
65685;BME280;52405;50.844;-1.062;2023-02-21T11:59:15;102039.69;;;11.22;65.62
65685;BME280;52405;50.844;-1.062;2023-02-21T12:07:46;102023.38;;;11.08;66.69
65685;BME280;52405;50.844;-1.062;2023-02-21T12:16:01;101957.97;;;10.69;66.29
65685;BME280;52405;50.844;-1.062;2023-02-21T12:21:29;102008.53;;;10.91;66.53
65685;BME280;52405;50.844;-1.062;2023-02-21T12:38:15;101977.75;;;10.51;67.59
65685;BME280;52405;50.844;-1.062;2023-02-21T12:44:00;101982.22;;;10.53;67.38
65685;BME280;52405;50.844;-1.062;2023-02-21T12:49:28;101985.44;;;10.49;67.65
65685;BME280;52405;50.844;-1.062;2023-02-21T12:51:59;101943.56;;;10.28;67.83
65685;BME280;52405;50.844;-1.062;2023-02-21T12:57:16;101905.09;;;10.06;67.71
65685;BME280;52405;50.844;-1.062;2023-02-21T13:00:00;101940.53;;;10.35;67.08
65685;BME280;52405;50.844;-1.062;2023-02-21T13:05:28;101947.13;;;10.30;67.06
65685;BME280;52405;50.844;-1.062;2023-02-21T13:10:48;101940.34;;;10.32;67.25
65685;BME280;52405;50.844;-1.062;2023-02-21T13:13:21;101937.84;;;10.34;66.70
65685;BME280;52405;50.844;-1.062;2023-02-21T13:15:48;101940.53;;;10.35;66.85
65685;BME280;52405;50.844;-1.062;2023-02-21T13:20:58;101934.94;;;10.29;66.71
65685;BME280;52405;50.844;-1.062;2023-02-21T13:29:22;101930.31;;;10.38;66.22
65685;BME280;52405;50.844;-1.062;2023-02-21T13:32:00;101917.66;;;10.45;66.47
65685;BME280;52405;50.844;-1.062;2023-02-21T13:34:35;101904.69;;;10.45;66.10
65685;BME280;52405;50.844;-1.062;2023-02-21T13:37:04;101907.28;;;10.45;65.60
65685;BME280;52405;50.844;-1.062;2023-02-21T13:39:32;101905.47;;;10.44;65.84
65685;BME280;52405;50.844;-1.062;2023-02-21T13:42:09;101900.28;;;10.44;65.21
65685;BME280;52405;50.844;-1.062;2023-02-21T13:44:50;101881.78;;;10.37;65.17
65685;BME280;52405;50.844;-1.062;2023-02-21T13:47:24;101856.97;;;10.28;65.40
65685;BME280;52405;50.844;-1.062;2023-02-21T13:49:54;101883.44;;;10.52;65.35
65685;BME280;52405;50.844;-1.062;2023-02-21T13:57:50;101877.44;;;10.69;64.65
65685;BME280;52405;50.844;-1.062;2023-02-21T14:10:52;101853.41;;;10.73;62.71
65685;BME280;52405;50.844;-1.062;2023-02-21T14:13:22;101838.22;;;10.65;63.07
65685;BME280;52405;50.844;-1.062;2023-02-21T14:15:55;101844.78;;;10.74;62.89
65685;BME280;52405;50.844;-1.062;2023-02-21T14:21:09;101840.34;;;10.72;62.66
65685;BME280;52405;50.844;-1.062;2023-02-21T14:23:45;101816.47;;;10.63;62.83
65685;BME280;52405;50.844;-1.062;2023-02-21T14:26:54;101826.91;;;10.64;62.07
65685;BME280;52405;50.844;-1.062;2023-02-21T14:37:40;101822.72;;;10.50;62.79
65685;BME280;52405;50.844;-1.062;2023-02-21T14:45:56;101807.13;;;10.50;62.43
65685;BME280;52405;50.844;-1.062;2023-02-21T15:00:14;101789.56;;;10.62;62.29
65685;BME280;52405;50.844;-1.062;2023-02-21T15:02:52;101790.22;;;10.58;62.20
65685;BME280;52405;50.844;-1.062;2023-02-21T15:10:30;101767.75;;;10.42;62.90
65685;BME280;52405;50.844;-1.062;2023-02-21T15:13:01;101776.59;;;10.46;62.95
65685;BME280;52405;50.844;-1.062;2023-02-21T15:15:31;101775.88;;;10.48;63.14
65685;BME280;52405;50.844;-1.062;2023-02-21T15:20:25;101754.34;;;10.34;63.16
65685;BME280;52405;50.844;-1.062;2023-02-21T15:23:01;101748.91;;;10.30;63.03
65685;BME280;52405;50.844;-1.062;2023-02-21T15:25:26;101746.03;;;10.25;63.19
65685;BME280;52405;50.844;-1.062;2023-02-21T15:27:55;101770.69;;;10.32;62.85
65685;BME280;52405;50.844;-1.062;2023-02-21T15:30:41;101765.28;;;10.29;62.98
65685;BME280;52405;50.844;-1.062;2023-02-21T15:33:15;101759.19;;;10.28;62.96
65685;BME280;52405;50.844;-1.062;2023-02-21T15:36:04;101744.41;;;10.27;62.99
65685;BME280;52405;50.844;-1.062;2023-02-21T15:38:48;101762.00;;;10.31;62.90
65685;BME280;52405;50.844;-1.062;2023-02-21T15:41:36;101763.56;;;10.29;63.67
65685;BME280;52405;50.844;-1.062;2023-02-21T15:44:22;101754.09;;;10.30;63.23
65685;BME280;52405;50.844;-1.062;2023-02-21T15:49:45;101747.84;;;10.26;62.73
65685;BME280;52405;50.844;-1.062;2023-02-21T15:52:48;101751.25;;;10.25;62.99